KALM/ALM METAR and TAF weather

Enter ICAO airport designator
Station Type Date Time Source
KALM METAR 2019/12/12 11:55 UTC NOAA

KALM 121155Z AUTO 09004KT 10SM CLR 00/00 A3022 RMK AO2


Station Type Date Time Source
KALM Decoded METAR 2019/12/12 11:55 UTC NOAA

Alamogordo-White, NM, United States (KALM) 32-50N 105-59W
Dec 12, 2019 - 06:55 AM EST / 2019.12.12 1155 UTC
Wind: from the E (090 degrees) at 5 MPH (4 KT):0
Visibility: 10 mile(s):0
Sky conditions: clear
Temperature: 32 F (0 C)
Windchill: 26 F (-3 C):1
Dew Point: 32 F (0 C)
Relative Humidity: 100%
Pressure (altimeter): 30.22 in. Hg (1023 hPa)
ob: KALM 121155Z AUTO 09004KT 10SM CLR 00/00 A3022 RMK AO2
cycle: 12

Station Type Date Time Source
KALM TAF UTC NOAA

Error!

Example: see airport list